sensor_id;sensor_type;location;lat;lon;timestamp;temperature;humidity
36654;DHT22;22650;49.350;20.898;2023-12-20T00:01:42;0.90;99.90
36654;DHT22;22650;49.350;20.898;2023-12-20T00:04:16;0.90;99.90
36654;DHT22;22650;49.350;20.898;2023-12-20T00:06:51;0.90;99.90
36654;DHT22;22650;49.350;20.898;2023-12-20T00:09:24;0.90;99.90
36654;DHT22;22650;49.350;20.898;2023-12-20T00:11:58;0.90;99.90
36654;DHT22;22650;49.350;20.898;2023-12-20T00:14:32;0.90;99.90
36654;DHT22;22650;49.350;20.898;2023-12-20T00:17:05;0.90;99.90
36654;DHT22;22650;49.350;20.898;2023-12-20T00:19:40;0.90;99.90
36654;DHT22;22650;49.350;20.898;2023-12-20T00:22:15;0.80;99.90
36654;DHT22;22650;49.350;20.898;2023-12-20T00:24:48;0.80;99.90
36654;DHT22;22650;49.350;20.898;2023-12-20T00:27:22;0.70;99.90
36654;DHT22;22650;49.350;20.898;2023-12-20T00:29:56;0.70;99.90
36654;DHT22;22650;49.350;20.898;2023-12-20T00:32:30;0.70;99.90
36654;DHT22;22650;49.350;20.898;2023-12-20T00:35:04;0.60;99.90
36654;DHT22;22650;49.350;20.898;2023-12-20T00:37:39;0.60;99.90
36654;DHT22;22650;49.350;20.898;2023-12-20T00:40:13;0.60;99.90
36654;DHT22;22650;49.350;20.898;2023-12-20T00:42:47;0.60;99.90
36654;DHT22;22650;49.350;20.898;2023-12-20T00:45:21;0.60;99.90
36654;DHT22;22650;49.350;20.898;2023-12-20T00:47:54;0.60;99.90
36654;DHT22;22650;49.350;20.898;2023-12-20T00:50:28;0.60;99.90
36654;DHT22;22650;49.350;20.898;2023-12-20T00:53:03;0.60;99.90
36654;DHT22;22650;49.350;20.898;2023-12-20T00:55:38;0.60;99.90
36654;DHT22;22650;49.350;20.898;2023-12-20T00:58:12;0.60;99.90
36654;DHT22;22650;49.350;20.898;2023-12-20T01:00:47;0.60;99.90
36654;DHT22;22650;49.350;20.898;2023-12-20T01:03:21;0.60;99.90
36654;DHT22;22650;49.350;20.898;2023-12-20T01:05:55;0.60;99.90
36654;DHT22;22650;49.350;20.898;2023-12-20T01:08:30;0.50;99.90
36654;DHT22;22650;49.350;20.898;2023-12-20T01:11:04;0.50;99.90
36654;DHT22;22650;49.350;20.898;2023-12-20T01:13:38;0.50;99.90
36654;DHT22;22650;49.350;20.898;2023-12-20T01:16:12;0.50;99.90
36654;DHT22;22650;49.350;20.898;2023-12-20T01:18:46;0.40;99.90
36654;DHT22;22650;49.350;20.898;2023-12-20T01:21:19;0.40;99.90
36654;DHT22;22650;49.350;20.898;2023-12-20T01:23:54;0.40;99.90
36654;DHT22;22650;49.350;20.898;2023-12-20T01:26:28;0.30;99.90
36654;DHT22;22650;49.350;20.898;2023-12-20T01:29:02;0.30;99.90
36654;DHT22;22650;49.350;20.898;2023-12-20T01:31:35;0.30;99.90
36654;DHT22;22650;49.350;20.898;2023-12-20T01:34:09;0.30;99.90
36654;DHT22;22650;49.350;20.898;2023-12-20T01:36:43;0.20;99.90
36654;DHT22;22650;49.350;20.898;2023-12-20T01:39:18;0.20;99.90
36654;DHT22;22650;49.350;20.898;2023-12-20T01:42:01;0.20;99.90
36654;DHT22;22650;49.350;20.898;2023-12-20T01:44:34;0.20;99.90
36654;DHT22;22650;49.350;20.898;2023-12-20T01:47:08;0.20;99.90
36654;DHT22;22650;49.350;20.898;2023-12-20T01:49:42;0.20;99.90
36654;DHT22;22650;49.350;20.898;2023-12-20T01:52:17;0.10;99.90
36654;DHT22;22650;49.350;20.898;2023-12-20T01:54:52;0.10;99.90
36654;DHT22;22650;49.350;20.898;2023-12-20T01:57:27;0.10;99.90
36654;DHT22;22650;49.350;20.898;2023-12-20T02:00:01;0.10;99.90
36654;DHT22;22650;49.350;20.898;2023-12-20T02:02:37;0.20;99.90
36654;DHT22;22650;49.350;20.898;2023-12-20T02:05:12;0.20;99.90
36654;DHT22;22650;49.350;20.898;2023-12-20T02:07:46;0.20;99.90
36654;DHT22;22650;49.350;20.898;2023-12-20T02:10:22;0.20;99.90
36654;DHT22;22650;49.350;20.898;2023-12-20T02:12:56;0.30;99.90
36654;DHT22;22650;49.350;20.898;2023-12-20T02:15:30;0.30;99.90
36654;DHT22;22650;49.350;20.898;2023-12-20T02:18:04;0.30;99.90
36654;DHT22;22650;49.350;20.898;2023-12-20T02:20:39;0.30;99.90
36654;DHT22;22650;49.350;20.898;2023-12-20T02:23:14;0.40;99.90
36654;DHT22;22650;49.350;20.898;2023-12-20T02:25:47;0.40;99.90
36654;DHT22;22650;49.350;20.898;2023-12-20T02:28:23;0.30;99.90
36654;DHT22;22650;49.350;20.898;2023-12-20T02:30:56;0.30;99.90
36654;DHT22;22650;49.350;20.898;2023-12-20T02:33:30;0.30;99.90
36654;DHT22;22650;49.350;20.898;2023-12-20T02:36:04;0.30;99.90
36654;DHT22;22650;49.350;20.898;2023-12-20T02:38:41;0.30;99.90
36654;DHT22;22650;49.350;20.898;2023-12-20T02:41:14;0.30;99.90
36654;DHT22;22650;49.350;20.898;2023-12-20T02:43:50;0.30;99.90
36654;DHT22;22650;49.350;20.898;2023-12-20T02:46:23;0.30;99.90
36654;DHT22;22650;49.350;20.898;2023-12-20T02:48:57;0.30;99.90
36654;DHT22;22650;49.350;20.898;2023-12-20T02:51:31;0.30;99.90
36654;DHT22;22650;49.350;20.898;2023-12-20T02:54:06;0.30;99.90
36654;DHT22;22650;49.350;20.898;2023-12-20T02:56:40;0.30;99.90
36654;DHT22;22650;49.350;20.898;2023-12-20T02:59:13;0.30;99.90
36654;DHT22;22650;49.350;20.898;2023-12-20T03:01:47;0.30;99.90
36654;DHT22;22650;49.350;20.898;2023-12-20T03:04:22;0.30;99.90
36654;DHT22;22650;49.350;20.898;2023-12-20T03:06:55;0.30;99.90
36654;DHT22;22650;49.350;20.898;2023-12-20T03:09:30;0.30;99.90
36654;DHT22;22650;49.350;20.898;2023-12-20T03:12:24;0.30;99.90
36654;DHT22;22650;49.350;20.898;2023-12-20T03:14:58;0.30;99.90
36654;DHT22;22650;49.350;20.898;2023-12-20T03:17:31;0.30;99.90
36654;DHT22;22650;49.350;20.898;2023-12-20T03:20:06;0.30;99.90
36654;DHT22;22650;49.350;20.898;2023-12-20T03:22:40;0.30;99.90
36654;DHT22;22650;49.350;20.898;2023-12-20T03:25:15;0.30;99.90
36654;DHT22;22650;49.350;20.898;2023-12-20T03:27:49;0.30;99.90
36654;DHT22;22650;49.350;20.898;2023-12-20T03:30:22;0.20;99.90
36654;DHT22;22650;49.350;20.898;2023-12-20T03:32:56;0.10;99.90
36654;DHT22;22650;49.350;20.898;2023-12-20T03:35:30;0.10;99.90
36654;DHT22;22650;49.350;20.898;2023-12-20T03:38:04;0.00;99.90
36654;DHT22;22650;49.350;20.898;2023-12-20T03:40:38;0.10;99.90
36654;DHT22;22650;49.350;20.898;2023-12-20T03:43:12;0.00;99.90
36654;DHT22;22650;49.350;20.898;2023-12-20T03:45:46;0.10;99.90
36654;DHT22;22650;49.350;20.898;2023-12-20T03:48:20;0.10;99.90
36654;DHT22;22650;49.350;20.898;2023-12-20T03:50:54;0.10;99.90
36654;DHT22;22650;49.350;20.898;2023-12-20T03:53:27;0.10;99.90
36654;DHT22;22650;49.350;20.898;2023-12-20T03:56:03;0.20;99.90
36654;DHT22;22650;49.350;20.898;2023-12-20T03:58:36;0.20;99.90
36654;DHT22;22650;49.350;20.898;2023-12-20T04:01:10;0.20;99.90
36654;DHT22;22650;49.350;20.898;2023-12-20T04:03:44;0.30;99.90
36654;DHT22;22650;49.350;20.898;2023-12-20T04:06:18;0.30;99.90
36654;DHT22;22650;49.350;20.898;2023-12-20T04:08:52;0.30;99.90
36654;DHT22;22650;49.350;20.898;2023-12-20T04:11:27;0.40;99.90
36654;DHT22;22650;49.350;20.898;2023-12-20T04:14:00;0.40;99.90
36654;DHT22;22650;49.350;20.898;2023-12-20T04:16:34;0.40;99.90
36654;DHT22;22650;49.350;20.898;2023-12-20T04:19:08;0.40;99.90
36654;DHT22;22650;49.350;20.898;2023-12-20T04:21:41;0.40;99.90
36654;DHT22;22650;49.350;20.898;2023-12-20T04:24:15;0.40;99.90
36654;DHT22;22650;49.350;20.898;2023-12-20T04:26:50;0.40;99.90
36654;DHT22;22650;49.350;20.898;2023-12-20T04:29:24;0.40;99.90
36654;DHT22;22650;49.350;20.898;2023-12-20T04:31:57;0.40;99.90
36654;DHT22;22650;49.350;20.898;2023-12-20T04:34:31;0.40;99.90
36654;DHT22;22650;49.350;20.898;2023-12-20T04:37:05;0.40;99.90
36654;DHT22;22650;49.350;20.898;2023-12-20T04:39:38;0.40;99.90
36654;DHT22;22650;49.350;20.898;2023-12-20T04:42:14;0.30;99.90
36654;DHT22;22650;49.350;20.898;2023-12-20T04:44:48;0.30;99.90
36654;DHT22;22650;49.350;20.898;2023-12-20T04:47:22;0.30;99.90
36654;DHT22;22650;49.350;20.898;2023-12-20T04:49:55;0.30;99.90
36654;DHT22;22650;49.350;20.898;2023-12-20T04:52:29;0.30;99.90
36654;DHT22;22650;49.350;20.898;2023-12-20T04:55:04;0.20;99.90
36654;DHT22;22650;49.350;20.898;2023-12-20T04:57:39;0.20;99.90
36654;DHT22;22650;49.350;20.898;2023-12-20T05:00:13;0.20;99.90
36654;DHT22;22650;49.350;20.898;2023-12-20T05:02:47;0.20;99.90
36654;DHT22;22650;49.350;20.898;2023-12-20T05:05:21;0.20;99.90
36654;DHT22;22650;49.350;20.898;2023-12-20T05:07:55;0.10;99.90
36654;DHT22;22650;49.350;20.898;2023-12-20T05:10:28;0.10;99.90
36654;DHT22;22650;49.350;20.898;2023-12-20T05:13:03;0.10;99.90
36654;DHT22;22650;49.350;20.898;2023-12-20T05:15:37;0.10;99.90
36654;DHT22;22650;49.350;20.898;2023-12-20T05:18:11;0.10;99.90
36654;DHT22;22650;49.350;20.898;2023-12-20T05:20:45;0.10;99.90
36654;DHT22;22650;49.350;20.898;2023-12-20T05:23:18;0.10;99.90
36654;DHT22;22650;49.350;20.898;2023-12-20T05:25:52;0.00;99.90
36654;DHT22;22650;49.350;20.898;2023-12-20T05:28:27;0.00;99.90
36654;DHT22;22650;49.350;20.898;2023-12-20T05:31:01;0.00;99.90
36654;DHT22;22650;49.350;20.898;2023-12-20T05:33:35;-0.10;99.90
36654;DHT22;22650;49.350;20.898;2023-12-20T05:36:09;-0.10;99.90
36654;DHT22;22650;49.350;20.898;2023-12-20T05:38:45;-0.10;99.90
36654;DHT22;22650;49.350;20.898;2023-12-20T05:41:19;-0.10;99.90
36654;DHT22;22650;49.350;20.898;2023-12-20T05:43:57;-0.10;99.90
36654;DHT22;22650;49.350;20.898;2023-12-20T05:46:31;-0.10;99.90
36654;DHT22;22650;49.350;20.898;2023-12-20T05:49:05;-0.20;99.90
36654;DHT22;22650;49.350;20.898;2023-12-20T05:51:38;-0.20;99.90
36654;DHT22;22650;49.350;20.898;2023-12-20T05:54:12;-0.20;99.90
36654;DHT22;22650;49.350;20.898;2023-12-20T05:56:46;-0.20;99.90
36654;DHT22;22650;49.350;20.898;2023-12-20T05:59:21;-0.20;99.90
36654;DHT22;22650;49.350;20.898;2023-12-20T06:01:54;-0.30;99.90
36654;DHT22;22650;49.350;20.898;2023-12-20T06:04:31;-0.30;99.90
36654;DHT22;22650;49.350;20.898;2023-12-20T06:07:04;-0.30;99.90
36654;DHT22;22650;49.350;20.898;2023-12-20T06:09:38;-0.20;99.90
36654;DHT22;22650;49.350;20.898;2023-12-20T06:12:12;-0.20;99.90
36654;DHT22;22650;49.350;20.898;2023-12-20T06:14:47;-0.20;99.90
36654;DHT22;22650;49.350;20.898;2023-12-20T06:17:20;-0.20;99.90
36654;DHT22;22650;49.350;20.898;2023-12-20T06:19:54;-0.20;99.90
36654;DHT22;22650;49.350;20.898;2023-12-20T06:22:28;-0.30;99.90
36654;DHT22;22650;49.350;20.898;2023-12-20T06:25:02;-0.30;99.90
36654;DHT22;22650;49.350;20.898;2023-12-20T06:27:36;-0.30;99.90
36654;DHT22;22650;49.350;20.898;2023-12-20T06:30:12;-0.30;99.90
36654;DHT22;22650;49.350;20.898;2023-12-20T06:32:45;-0.30;99.90
36654;DHT22;22650;49.350;20.898;2023-12-20T06:35:20;-0.30;99.90
36654;DHT22;22650;49.350;20.898;2023-12-20T06:37:53;-0.30;99.90
36654;DHT22;22650;49.350;20.898;2023-12-20T06:40:27;-0.30;99.90
36654;DHT22;22650;49.350;20.898;2023-12-20T06:43:01;-0.30;99.90
36654;DHT22;22650;49.350;20.898;2023-12-20T06:45:48;-0.30;99.90
36654;DHT22;22650;49.350;20.898;2023-12-20T06:48:23;-0.30;99.90
36654;DHT22;22650;49.350;20.898;2023-12-20T06:50:56;-0.30;99.90
36654;DHT22;22650;49.350;20.898;2023-12-20T06:53:31;-0.30;99.90
36654;DHT22;22650;49.350;20.898;2023-12-20T06:56:05;-0.30;99.90
36654;DHT22;22650;49.350;20.898;2023-12-20T06:58:39;-0.30;99.90
36654;DHT22;22650;49.350;20.898;2023-12-20T07:01:15;-0.30;99.90
36654;DHT22;22650;49.350;20.898;2023-12-20T07:03:49;-0.30;99.90
36654;DHT22;22650;49.350;20.898;2023-12-20T07:06:22;-0.30;99.90
36654;DHT22;22650;49.350;20.898;2023-12-20T07:08:58;-0.30;99.90
36654;DHT22;22650;49.350;20.898;2023-12-20T07:11:31;-0.30;99.90
36654;DHT22;22650;49.350;20.898;2023-12-20T07:14:05;-0.30;99.90
36654;DHT22;22650;49.350;20.898;2023-12-20T07:16:40;-0.30;99.90
36654;DHT22;22650;49.350;20.898;2023-12-20T07:19:14;-0.30;99.90
36654;DHT22;22650;49.350;20.898;2023-12-20T07:21:47;-0.20;99.90
36654;DHT22;22650;49.350;20.898;2023-12-20T07:24:21;-0.20;99.90
36654;DHT22;22650;49.350;20.898;2023-12-20T07:26:55;-0.30;99.90
36654;DHT22;22650;49.350;20.898;2023-12-20T07:29:29;-0.30;99.90
36654;DHT22;22650;49.350;20.898;2023-12-20T07:32:05;-0.30;99.90
36654;DHT22;22650;49.350;20.898;2023-12-20T07:34:38;-0.30;99.90
36654;DHT22;22650;49.350;20.898;2023-12-20T07:37:12;-0.20;99.90
36654;DHT22;22650;49.350;20.898;2023-12-20T07:39:46;-0.20;99.90
36654;DHT22;22650;49.350;20.898;2023-12-20T07:42:20;-0.20;99.90
36654;DHT22;22650;49.350;20.898;2023-12-20T07:44:54;-0.20;99.90
36654;DHT22;22650;49.350;20.898;2023-12-20T07:47:29;-0.30;99.90
36654;DHT22;22650;49.350;20.898;2023-12-20T07:50:04;-0.30;99.90
36654;DHT22;22650;49.350;20.898;2023-12-20T07:52:38;-0.20;99.90
36654;DHT22;22650;49.350;20.898;2023-12-20T07:55:11;-0.20;99.90
36654;DHT22;22650;49.350;20.898;2023-12-20T07:57:45;-0.20;99.90
36654;DHT22;22650;49.350;20.898;2023-12-20T08:00:19;-0.20;99.90
36654;DHT22;22650;49.350;20.898;2023-12-20T08:02:54;-0.10;99.90
36654;DHT22;22650;49.350;20.898;2023-12-20T08:05:28;-0.10;99.90
36654;DHT22;22650;49.350;20.898;2023-12-20T08:08:01;0.00;99.90
36654;DHT22;22650;49.350;20.898;2023-12-20T08:10:35;0.10;99.90
36654;DHT22;22650;49.350;20.898;2023-12-20T08:13:09;0.10;99.90
36654;DHT22;22650;49.350;20.898;2023-12-20T08:15:42;0.20;99.90
36654;DHT22;22650;49.350;20.898;2023-12-20T08:18:17;0.30;99.90
36654;DHT22;22650;49.350;20.898;2023-12-20T08:20:51;0.40;99.90
36654;DHT22;22650;49.350;20.898;2023-12-20T08:23:26;0.40;99.90
36654;DHT22;22650;49.350;20.898;2023-12-20T08:26:04;0.50;99.90
36654;DHT22;22650;49.350;20.898;2023-12-20T08:28:38;0.50;99.90
36654;DHT22;22650;49.350;20.898;2023-12-20T08:31:14;0.50;99.90
36654;DHT22;22650;49.350;20.898;2023-12-20T08:33:50;0.60;99.90
36654;DHT22;22650;49.350;20.898;2023-12-20T08:36:25;0.60;99.90
36654;DHT22;22650;49.350;20.898;2023-12-20T08:38:59;0.60;99.90
36654;DHT22;22650;49.350;20.898;2023-12-20T08:41:34;0.70;99.90
36654;DHT22;22650;49.350;20.898;2023-12-20T08:44:09;0.70;99.90
36654;DHT22;22650;49.350;20.898;2023-12-20T08:46:46;0.80;99.90
36654;DHT22;22650;49.350;20.898;2023-12-20T08:49:23;0.80;99.90
36654;DHT22;22650;49.350;20.898;2023-12-20T08:52:00;0.80;99.90
36654;DHT22;22650;49.350;20.898;2023-12-20T08:54:34;0.90;99.90
36654;DHT22;22650;49.350;20.898;2023-12-20T08:57:08;0.90;99.90
36654;DHT22;22650;49.350;20.898;2023-12-20T08:59:41;0.90;99.90
36654;DHT22;22650;49.350;20.898;2023-12-20T09:02:15;1.00;99.90
36654;DHT22;22650;49.350;20.898;2023-12-20T09:04:50;1.00;99.90
36654;DHT22;22650;49.350;20.898;2023-12-20T09:07:25;1.10;99.90
36654;DHT22;22650;49.350;20.898;2023-12-20T09:10:00;1.20;99.90
36654;DHT22;22650;49.350;20.898;2023-12-20T09:12:33;1.20;99.90
36654;DHT22;22650;49.350;20.898;2023-12-20T09:15:08;1.30;99.90
36654;DHT22;22650;49.350;20.898;2023-12-20T09:17:41;1.30;99.90
36654;DHT22;22650;49.350;20.898;2023-12-20T09:20:18;1.40;99.90
36654;DHT22;22650;49.350;20.898;2023-12-20T09:22:51;1.50;99.90
36654;DHT22;22650;49.350;20.898;2023-12-20T09:25:25;1.60;99.90
36654;DHT22;22650;49.350;20.898;2023-12-20T09:27:59;1.70;99.90
36654;DHT22;22650;49.350;20.898;2023-12-20T09:30:33;1.80;99.90
36654;DHT22;22650;49.350;20.898;2023-12-20T09:33:07;1.80;99.90
36654;DHT22;22650;49.350;20.898;2023-12-20T09:35:43;1.90;99.90
36654;DHT22;22650;49.350;20.898;2023-12-20T09:38:17;1.90;99.90
36654;DHT22;22650;49.350;20.898;2023-12-20T09:40:50;2.00;99.90
36654;DHT22;22650;49.350;20.898;2023-12-20T09:43:24;2.10;99.90
36654;DHT22;22650;49.350;20.898;2023-12-20T09:46:04;2.20;99.90
36654;DHT22;22650;49.350;20.898;2023-12-20T09:48:40;2.40;99.90
36654;DHT22;22650;49.350;20.898;2023-12-20T09:51:16;2.50;99.90
36654;DHT22;22650;49.350;20.898;2023-12-20T09:53:50;2.60;99.90
36654;DHT22;22650;49.350;20.898;2023-12-20T09:56:26;2.70;99.90
36654;DHT22;22650;49.350;20.898;2023-12-20T09:58:59;2.70;99.90
36654;DHT22;22650;49.350;20.898;2023-12-20T10:01:34;2.60;99.90
36654;DHT22;22650;49.350;20.898;2023-12-20T10:04:10;2.60;99.90
36654;DHT22;22650;49.350;20.898;2023-12-20T10:07:04;2.60;99.90
36654;DHT22;22650;49.350;20.898;2023-12-20T10:09:38;2.50;99.90
36654;DHT22;22650;49.350;20.898;2023-12-20T10:12:12;2.50;99.90
36654;DHT22;22650;49.350;20.898;2023-12-20T10:14:45;2.50;99.90
36654;DHT22;22650;49.350;20.898;2023-12-20T10:17:21;2.50;99.90
36654;DHT22;22650;49.350;20.898;2023-12-20T10:19:55;2.50;99.90
36654;DHT22;22650;49.350;20.898;2023-12-20T10:22:30;2.60;99.90
36654;DHT22;22650;49.350;20.898;2023-12-20T10:25:06;2.70;99.90
36654;DHT22;22650;49.350;20.898;2023-12-20T10:27:41;3.00;99.90
36654;DHT22;22650;49.350;20.898;2023-12-20T10:30:14;3.20;99.90
36654;DHT22;22650;49.350;20.898;2023-12-20T10:32:48;3.20;99.90
36654;DHT22;22650;49.350;20.898;2023-12-20T10:35:22;3.40;99.90
36654;DHT22;22650;49.350;20.898;2023-12-20T10:37:57;3.60;99.90
36654;DHT22;22650;49.350;20.898;2023-12-20T10:40:34;3.70;99.90
36654;DHT22;22650;49.350;20.898;2023-12-20T10:43:11;3.90;99.90
36654;DHT22;22650;49.350;20.898;2023-12-20T10:45:45;3.80;99.90
36654;DHT22;22650;49.350;20.898;2023-12-20T10:48:20;3.80;99.90
36654;DHT22;22650;49.350;20.898;2023-12-20T10:51:02;3.70;99.90
36654;DHT22;22650;49.350;20.898;2023-12-20T10:53:39;3.60;99.90
36654;DHT22;22650;49.350;20.898;2023-12-20T10:56:16;3.50;99.90
36654;DHT22;22650;49.350;20.898;2023-12-20T10:58:50;3.40;99.90
36654;DHT22;22650;49.350;20.898;2023-12-20T11:01:24;3.40;99.90
36654;DHT22;22650;49.350;20.898;2023-12-20T11:03:59;3.40;99.90
36654;DHT22;22650;49.350;20.898;2023-12-20T11:06:40;3.40;99.90
36654;DHT22;22650;49.350;20.898;2023-12-20T11:09:22;3.30;99.90
36654;DHT22;22650;49.350;20.898;2023-12-20T11:12:02;3.30;99.90
36654;DHT22;22650;49.350;20.898;2023-12-20T11:14:42;3.20;99.90
36654;DHT22;22650;49.350;20.898;2023-12-20T11:17:18;3.20;99.90
36654;DHT22;22650;49.350;20.898;2023-12-20T11:20:06;3.20;99.90
36654;DHT22;22650;49.350;20.898;2023-12-20T11:22:53;3.20;99.90
36654;DHT22;22650;49.350;20.898;2023-12-20T11:25:29;3.20;99.90
36654;DHT22;22650;49.350;20.898;2023-12-20T11:28:09;3.10;99.90
36654;DHT22;22650;49.350;20.898;2023-12-20T11:30:47;3.20;99.90
36654;DHT22;22650;49.350;20.898;2023-12-20T11:33:23;3.10;99.90
36654;DHT22;22650;49.350;20.898;2023-12-20T11:36:01;3.00;99.90
36654;DHT22;22650;49.350;20.898;2023-12-20T11:38:39;2.90;99.90
36654;DHT22;22650;49.350;20.898;2023-12-20T11:41:25;2.90;99.90
36654;DHT22;22650;49.350;20.898;2023-12-20T11:43:59;2.90;99.90
36654;DHT22;22650;49.350;20.898;2023-12-20T11:46:33;2.90;99.90
36654;DHT22;22650;49.350;20.898;2023-12-20T11:49:07;2.90;99.90
36654;DHT22;22650;49.350;20.898;2023-12-20T11:51:41;3.00;99.90
36654;DHT22;22650;49.350;20.898;2023-12-20T11:54:16;3.00;99.90
36654;DHT22;22650;49.350;20.898;2023-12-20T11:56:51;3.00;99.90
36654;DHT22;22650;49.350;20.898;2023-12-20T11:59:25;2.90;99.90
36654;DHT22;22650;49.350;20.898;2023-12-20T12:01:59;2.90;99.90
36654;DHT22;22650;49.350;20.898;2023-12-20T12:04:34;2.90;99.90
36654;DHT22;22650;49.350;20.898;2023-12-20T12:07:08;3.00;99.90
36654;DHT22;22650;49.350;20.898;2023-12-20T12:09:42;2.90;99.90
36654;DHT22;22650;49.350;20.898;2023-12-20T12:12:18;2.90;99.90
36654;DHT22;22650;49.350;20.898;2023-12-20T12:14:52;2.90;99.90
36654;DHT22;22650;49.350;20.898;2023-12-20T12:17:26;2.90;99.90
36654;DHT22;22650;49.350;20.898;2023-12-20T12:20:05;2.90;99.90
36654;DHT22;22650;49.350;20.898;2023-12-20T12:22:39;3.00;99.90
36654;DHT22;22650;49.350;20.898;2023-12-20T12:25:14;3.00;99.90
36654;DHT22;22650;49.350;20.898;2023-12-20T12:27:51;2.90;99.90
36654;DHT22;22650;49.350;20.898;2023-12-20T12:30:25;2.90;99.90
36654;DHT22;22650;49.350;20.898;2023-12-20T12:33:04;2.90;99.90
36654;DHT22;22650;49.350;20.898;2023-12-20T12:35:56;2.90;99.90
36654;DHT22;22650;49.350;20.898;2023-12-20T12:38:30;3.00;99.90
36654;DHT22;22650;49.350;20.898;2023-12-20T12:41:04;2.90;99.90
36654;DHT22;22650;49.350;20.898;2023-12-20T12:43:39;2.90;99.90
36654;DHT22;22650;49.350;20.898;2023-12-20T12:46:13;2.90;99.90
36654;DHT22;22650;49.350;20.898;2023-12-20T12:48:46;2.90;99.90
36654;DHT22;22650;49.350;20.898;2023-12-20T12:51:23;3.00;99.90
36654;DHT22;22650;49.350;20.898;2023-12-20T12:53:56;3.00;99.90
36654;DHT22;22650;49.350;20.898;2023-12-20T12:56:30;3.00;99.90
36654;DHT22;22650;49.350;20.898;2023-12-20T12:59:03;2.90;99.90
36654;DHT22;22650;49.350;20.898;2023-12-20T13:01:37;2.90;99.90
36654;DHT22;22650;49.350;20.898;2023-12-20T13:04:12;2.90;99.90
36654;DHT22;22650;49.350;20.898;2023-12-20T13:06:47;2.90;99.90
36654;DHT22;22650;49.350;20.898;2023-12-20T13:09:21;2.90;99.90
36654;DHT22;22650;49.350;20.898;2023-12-20T13:11:55;2.90;99.90
36654;DHT22;22650;49.350;20.898;2023-12-20T13:14:30;3.00;99.90
36654;DHT22;22650;49.350;20.898;2023-12-20T13:17:07;3.00;99.90
36654;DHT22;22650;49.350;20.898;2023-12-20T13:19:41;3.00;99.90
36654;DHT22;22650;49.350;20.898;2023-12-20T13:22:17;2.90;99.90
36654;DHT22;22650;49.350;20.898;2023-12-20T13:24:51;2.90;99.90
36654;DHT22;22650;49.350;20.898;2023-12-20T13:27:25;2.90;99.90
36654;DHT22;22650;49.350;20.898;2023-12-20T13:29:58;2.90;99.90
36654;DHT22;22650;49.350;20.898;2023-12-20T13:32:32;2.90;99.90
36654;DHT22;22650;49.350;20.898;2023-12-20T13:35:06;2.90;99.90
36654;DHT22;22650;49.350;20.898;2023-12-20T13:37:42;2.90;99.90
36654;DHT22;22650;49.350;20.898;2023-12-20T13:40:18;2.90;99.90
36654;DHT22;22650;49.350;20.898;2023-12-20T13:42:52;2.90;99.90
36654;DHT22;22650;49.350;20.898;2023-12-20T13:45:27;2.80;99.90
36654;DHT22;22650;49.350;20.898;2023-12-20T13:48:00;2.90;99.90
36654;DHT22;22650;49.350;20.898;2023-12-20T13:50:34;2.90;99.90
36654;DHT22;22650;49.350;20.898;2023-12-20T13:53:10;2.90;99.90
36654;DHT22;22650;49.350;20.898;2023-12-20T13:55:44;2.70;99.90
36654;DHT22;22650;49.350;20.898;2023-12-20T13:58:18;2.70;99.90
36654;DHT22;22650;49.350;20.898;2023-12-20T14:00:52;2.80;99.90
36654;DHT22;22650;49.350;20.898;2023-12-20T14:03:26;2.80;99.90
36654;DHT22;22650;49.350;20.898;2023-12-20T14:06:00;2.80;99.90
36654;DHT22;22650;49.350;20.898;2023-12-20T14:08:35;2.80;99.90
36654;DHT22;22650;49.350;20.898;2023-12-20T14:11:10;2.90;99.90
36654;DHT22;22650;49.350;20.898;2023-12-20T14:13:44;2.90;99.90
36654;DHT22;22650;49.350;20.898;2023-12-20T14:16:18;3.00;99.90
36654;DHT22;22650;49.350;20.898;2023-12-20T14:18:52;3.00;99.90
36654;DHT22;22650;49.350;20.898;2023-12-20T14:21:29;3.00;99.90
36654;DHT22;22650;49.350;20.898;2023-12-20T14:24:05;3.00;99.90
36654;DHT22;22650;49.350;20.898;2023-12-20T14:26:39;3.00;99.90
36654;DHT22;22650;49.350;20.898;2023-12-20T14:29:13;3.00;99.90
36654;DHT22;22650;49.350;20.898;2023-12-20T14:31:46;3.10;99.90
36654;DHT22;22650;49.350;20.898;2023-12-20T14:34:21;3.10;99.90
36654;DHT22;22650;49.350;20.898;2023-12-20T14:36:56;3.10;99.90
36654;DHT22;22650;49.350;20.898;2023-12-20T14:39:32;3.10;99.90
36654;DHT22;22650;49.350;20.898;2023-12-20T14:42:06;3.20;99.90
36654;DHT22;22650;49.350;20.898;2023-12-20T14:44:43;3.30;99.90
36654;DHT22;22650;49.350;20.898;2023-12-20T14:47:17;3.50;99.90
36654;DHT22;22650;49.350;20.898;2023-12-20T14:49:50;3.60;99.90
36654;DHT22;22650;49.350;20.898;2023-12-20T14:52:24;3.70;99.90
36654;DHT22;22650;49.350;20.898;2023-12-20T14:54:59;3.70;99.90
36654;DHT22;22650;49.350;20.898;2023-12-20T14:57:34;3.70;99.90
36654;DHT22;22650;49.350;20.898;2023-12-20T15:00:08;3.80;99.90
36654;DHT22;22650;49.350;20.898;2023-12-20T15:02:42;3.80;99.90
36654;DHT22;22650;49.350;20.898;2023-12-20T15:05:16;3.80;99.90
36654;DHT22;22650;49.350;20.898;2023-12-20T15:07:50;3.80;99.90
36654;DHT22;22650;49.350;20.898;2023-12-20T15:10:26;3.80;99.90
36654;DHT22;22650;49.350;20.898;2023-12-20T15:13:00;3.90;99.90
36654;DHT22;22650;49.350;20.898;2023-12-20T15:15:34;3.90;99.90
36654;DHT22;22650;49.350;20.898;2023-12-20T15:18:07;3.90;99.90
36654;DHT22;22650;49.350;20.898;2023-12-20T15:20:41;3.90;99.90
36654;DHT22;22650;49.350;20.898;2023-12-20T15:23:19;3.90;99.90
36654;DHT22;22650;49.350;20.898;2023-12-20T15:25:55;3.90;99.90
36654;DHT22;22650;49.350;20.898;2023-12-20T15:28:32;3.90;99.90
36654;DHT22;22650;49.350;20.898;2023-12-20T15:31:05;4.00;99.90
36654;DHT22;22650;49.350;20.898;2023-12-20T15:33:40;4.00;99.90
36654;DHT22;22650;49.350;20.898;2023-12-20T15:36:14;4.00;99.90
36654;DHT22;22650;49.350;20.898;2023-12-20T15:38:47;3.90;99.90
36654;DHT22;22650;49.350;20.898;2023-12-20T15:41:22;3.90;99.90
36654;DHT22;22650;49.350;20.898;2023-12-20T15:43:57;3.80;99.90
36654;DHT22;22650;49.350;20.898;2023-12-20T15:46:30;3.80;99.90
36654;DHT22;22650;49.350;20.898;2023-12-20T15:49:04;3.80;99.90
36654;DHT22;22650;49.350;20.898;2023-12-20T15:51:38;3.70;99.90
36654;DHT22;22650;49.350;20.898;2023-12-20T15:54:12;3.70;99.90
36654;DHT22;22650;49.350;20.898;2023-12-20T15:56:47;3.60;99.90
36654;DHT22;22650;49.350;20.898;2023-12-20T15:59:21;3.60;99.90
36654;DHT22;22650;49.350;20.898;2023-12-20T16:01:54;3.60;99.90
36654;DHT22;22650;49.350;20.898;2023-12-20T16:04:28;3.50;99.90
36654;DHT22;22650;49.350;20.898;2023-12-20T16:07:02;3.40;99.90
36654;DHT22;22650;49.350;20.898;2023-12-20T16:09:36;3.30;99.90
36654;DHT22;22650;49.350;20.898;2023-12-20T16:12:11;3.20;99.90
36654;DHT22;22650;49.350;20.898;2023-12-20T16:14:45;3.20;99.90